sensor_id;sensor_type;location;lat;lon;timestamp;P1;durP1;ratioP1;P2;durP2;ratioP2
23099;SDS011;53791;50.696;4.396;2022-08-19T00:01:51;3.52;;;3.22;;
23099;SDS011;53791;50.696;4.396;2022-08-19T00:04:22;4.45;;;3.00;;
23099;SDS011;53791;50.696;4.396;2022-08-19T00:06:51;3.47;;;3.02;;
23099;SDS011;53791;50.696;4.396;2022-08-19T00:09:19;3.83;;;3.08;;
23099;SDS011;53791;50.696;4.396;2022-08-19T00:11:48;4.17;;;3.02;;
23099;SDS011;53791;50.696;4.396;2022-08-19T00:14:17;7.75;;;2.95;;
23099;SDS011;53791;50.696;4.396;2022-08-19T00:16:46;3.60;;;2.92;;
23099;SDS011;53791;50.696;4.396;2022-08-19T00:19:14;5.15;;;3.90;;
23099;SDS011;53791;50.696;4.396;2022-08-19T00:21:42;3.95;;;3.27;;
23099;SDS011;53791;50.696;4.396;2022-08-19T00:24:11;3.10;;;2.67;;
23099;SDS011;53791;50.696;4.396;2022-08-19T00:26:41;4.47;;;3.52;;
23099;SDS011;53791;50.696;4.396;2022-08-19T00:29:11;4.25;;;3.40;;
23099;SDS011;53791;50.696;4.396;2022-08-19T00:31:41;4.42;;;3.65;;
23099;SDS011;53791;50.696;4.396;2022-08-19T00:34:09;3.37;;;2.85;;
23099;SDS011;53791;50.696;4.396;2022-08-19T00:36:38;5.65;;;3.62;;
23099;SDS011;53791;50.696;4.396;2022-08-19T00:39:06;4.15;;;3.45;;
23099;SDS011;53791;50.696;4.396;2022-08-19T00:41:35;5.12;;;3.62;;
23099;SDS011;53791;50.696;4.396;2022-08-19T00:44:05;3.85;;;3.25;;
23099;SDS011;53791;50.696;4.396;2022-08-19T00:46:33;4.10;;;3.70;;
23099;SDS011;53791;50.696;4.396;2022-08-19T00:49:03;5.50;;;3.37;;
23099;SDS011;53791;50.696;4.396;2022-08-19T00:51:46;3.70;;;3.30;;
23099;SDS011;53791;50.696;4.396;2022-08-19T00:54:15;5.05;;;3.98;;
23099;SDS011;53791;50.696;4.396;2022-08-19T00:56:44;3.33;;;3.00;;
23099;SDS011;53791;50.696;4.396;2022-08-19T00:59:12;3.95;;;3.15;;
23099;SDS011;53791;50.696;4.396;2022-08-19T01:01:42;5.62;;;4.40;;
23099;SDS011;53791;50.696;4.396;2022-08-19T01:04:12;6.05;;;4.80;;
23099;SDS011;53791;50.696;4.396;2022-08-19T01:06:40;4.42;;;3.83;;
23099;SDS011;53791;50.696;4.396;2022-08-19T01:09:08;7.15;;;4.53;;
23099;SDS011;53791;50.696;4.396;2022-08-19T01:11:39;6.60;;;4.40;;
23099;SDS011;53791;50.696;4.396;2022-08-19T01:14:07;4.20;;;3.80;;
23099;SDS011;53791;50.696;4.396;2022-08-19T01:16:35;3.70;;;3.10;;
23099;SDS011;53791;50.696;4.396;2022-08-19T01:19:08;5.85;;;3.70;;
23099;SDS011;53791;50.696;4.396;2022-08-19T01:21:40;7.60;;;4.17;;
23099;SDS011;53791;50.696;4.396;2022-08-19T01:24:08;5.10;;;3.37;;
23099;SDS011;53791;50.696;4.396;2022-08-19T01:26:40;3.15;;;2.85;;
23099;SDS011;53791;50.696;4.396;2022-08-19T01:29:10;6.28;;;4.10;;
23099;SDS011;53791;50.696;4.396;2022-08-19T01:31:38;5.62;;;4.37;;
23099;SDS011;53791;50.696;4.396;2022-08-19T01:34:06;4.25;;;3.70;;
23099;SDS011;53791;50.696;4.396;2022-08-19T01:36:39;3.60;;;3.22;;
23099;SDS011;53791;50.696;4.396;2022-08-19T01:39:12;5.12;;;3.60;;
23099;SDS011;53791;50.696;4.396;2022-08-19T01:41:41;4.85;;;3.65;;
23099;SDS011;53791;50.696;4.396;2022-08-19T01:44:09;5.95;;;4.10;;
23099;SDS011;53791;50.696;4.396;2022-08-19T01:46:38;5.15;;;4.17;;
23099;SDS011;53791;50.696;4.396;2022-08-19T01:49:06;5.78;;;4.22;;
23099;SDS011;53791;50.696;4.396;2022-08-19T01:51:34;7.40;;;3.95;;
23099;SDS011;53791;50.696;4.396;2022-08-19T01:54:02;6.60;;;4.85;;
23099;SDS011;53791;50.696;4.396;2022-08-19T01:56:30;4.83;;;4.17;;
23099;SDS011;53791;50.696;4.396;2022-08-19T01:58:58;8.08;;;5.10;;
23099;SDS011;53791;50.696;4.396;2022-08-19T02:01:28;7.42;;;5.20;;
23099;SDS011;53791;50.696;4.396;2022-08-19T02:04:01;7.35;;;3.25;;
23099;SDS011;53791;50.696;4.396;2022-08-19T02:06:29;5.35;;;4.75;;
23099;SDS011;53791;50.696;4.396;2022-08-19T02:08:56;5.00;;;4.50;;
23099;SDS011;53791;50.696;4.396;2022-08-19T02:11:25;5.37;;;4.72;;
23099;SDS011;53791;50.696;4.396;2022-08-19T02:13:57;5.30;;;4.25;;
23099;SDS011;53791;50.696;4.396;2022-08-19T02:16:25;5.90;;;4.55;;
23099;SDS011;53791;50.696;4.396;2022-08-19T02:18:52;4.97;;;4.35;;
23099;SDS011;53791;50.696;4.396;2022-08-19T02:21:21;5.30;;;4.10;;
23099;SDS011;53791;50.696;4.396;2022-08-19T02:23:49;5.80;;;4.12;;
23099;SDS011;53791;50.696;4.396;2022-08-19T02:26:17;5.45;;;4.67;;
23099;SDS011;53791;50.696;4.396;2022-08-19T02:28:45;5.85;;;4.67;;
23099;SDS011;53791;50.696;4.396;2022-08-19T02:31:19;5.20;;;3.95;;
23099;SDS011;53791;50.696;4.396;2022-08-19T02:33:44;4.30;;;3.90;;
23099;SDS011;53791;50.696;4.396;2022-08-19T02:36:13;5.45;;;3.98;;
23099;SDS011;53791;50.696;4.396;2022-08-19T02:38:42;7.12;;;5.37;;
23099;SDS011;53791;50.696;4.396;2022-08-19T02:41:18;4.40;;;4.00;;
23099;SDS011;53791;50.696;4.396;2022-08-19T02:43:47;5.58;;;4.80;;
23099;SDS011;53791;50.696;4.396;2022-08-19T02:46:20;6.72;;;4.25;;
23099;SDS011;53791;50.696;4.396;2022-08-19T02:48:53;5.53;;;3.77;;
23099;SDS011;53791;50.696;4.396;2022-08-19T02:51:24;5.95;;;4.00;;
23099;SDS011;53791;50.696;4.396;2022-08-19T02:53:52;5.40;;;4.53;;
23099;SDS011;53791;50.696;4.396;2022-08-19T02:56:20;5.12;;;3.95;;
23099;SDS011;53791;50.696;4.396;2022-08-19T02:58:48;4.12;;;3.45;;
23099;SDS011;53791;50.696;4.396;2022-08-19T03:01:22;6.90;;;4.92;;
23099;SDS011;53791;50.696;4.396;2022-08-19T03:03:52;7.28;;;5.12;;
23099;SDS011;53791;50.696;4.396;2022-08-19T03:06:21;6.33;;;4.17;;
23099;SDS011;53791;50.696;4.396;2022-08-19T03:08:49;4.65;;;3.87;;
23099;SDS011;53791;50.696;4.396;2022-08-19T03:11:19;4.75;;;4.25;;
23099;SDS011;53791;50.696;4.396;2022-08-19T03:13:48;6.87;;;4.95;;
23099;SDS011;53791;50.696;4.396;2022-08-19T03:16:20;5.75;;;5.05;;
23099;SDS011;53791;50.696;4.396;2022-08-19T03:18:49;5.67;;;3.98;;
23099;SDS011;53791;50.696;4.396;2022-08-19T03:21:18;3.90;;;3.50;;
23099;SDS011;53791;50.696;4.396;2022-08-19T03:23:53;8.68;;;4.97;;
23099;SDS011;53791;50.696;4.396;2022-08-19T03:26:23;5.50;;;4.45;;
23099;SDS011;53791;50.696;4.396;2022-08-19T03:28:51;4.55;;;4.10;;
23099;SDS011;53791;50.696;4.396;2022-08-19T03:31:20;5.50;;;4.95;;
23099;SDS011;53791;50.696;4.396;2022-08-19T03:33:49;7.97;;;4.95;;
23099;SDS011;53791;50.696;4.396;2022-08-19T03:36:19;8.30;;;5.20;;
23099;SDS011;53791;50.696;4.396;2022-08-19T03:38:49;7.40;;;5.37;;
23099;SDS011;53791;50.696;4.396;2022-08-19T03:41:21;6.60;;;5.83;;
23099;SDS011;53791;50.696;4.396;2022-08-19T03:43:51;6.22;;;5.62;;
23099;SDS011;53791;50.696;4.396;2022-08-19T03:46:23;7.62;;;5.78;;
23099;SDS011;53791;50.696;4.396;2022-08-19T03:48:58;5.20;;;4.65;;
23099;SDS011;53791;50.696;4.396;2022-08-19T03:51:22;6.30;;;5.25;;
23099;SDS011;53791;50.696;4.396;2022-08-19T03:53:56;6.92;;;5.80;;
23099;SDS011;53791;50.696;4.396;2022-08-19T03:56:25;5.22;;;4.75;;
23099;SDS011;53791;50.696;4.396;2022-08-19T03:58:56;7.58;;;6.15;;
23099;SDS011;53791;50.696;4.396;2022-08-19T04:01:26;8.00;;;5.80;;
23099;SDS011;53791;50.696;4.396;2022-08-19T04:03:55;5.62;;;4.70;;
23099;SDS011;53791;50.696;4.396;2022-08-19T04:06:25;5.67;;;5.10;;
23099;SDS011;53791;50.696;4.396;2022-08-19T04:08:54;11.08;;;6.28;;
23099;SDS011;53791;50.696;4.396;2022-08-19T04:11:25;9.75;;;6.30;;
23099;SDS011;53791;50.696;4.396;2022-08-19T04:14:08;15.88;;;6.95;;
23099;SDS011;53791;50.696;4.396;2022-08-19T04:16:37;7.15;;;5.47;;
23099;SDS011;53791;50.696;4.396;2022-08-19T04:19:04;6.33;;;5.15;;
23099;SDS011;53791;50.696;4.396;2022-08-19T04:21:33;7.80;;;6.42;;
23099;SDS011;53791;50.696;4.396;2022-08-19T04:24:01;6.12;;;5.53;;
23099;SDS011;53791;50.696;4.396;2022-08-19T04:26:31;7.12;;;5.78;;
23099;SDS011;53791;50.696;4.396;2022-08-19T04:29:00;9.65;;;5.80;;
23099;SDS011;53791;50.696;4.396;2022-08-19T04:31:30;6.42;;;5.83;;
23099;SDS011;53791;50.696;4.396;2022-08-19T04:34:00;12.50;;;6.92;;
23099;SDS011;53791;50.696;4.396;2022-08-19T04:36:30;6.50;;;5.80;;
23099;SDS011;53791;50.696;4.396;2022-08-19T04:39:01;7.97;;;5.90;;
23099;SDS011;53791;50.696;4.396;2022-08-19T04:41:32;11.73;;;8.18;;
23099;SDS011;53791;50.696;4.396;2022-08-19T04:44:18;9.25;;;6.90;;
23099;SDS011;53791;50.696;4.396;2022-08-19T04:46:47;8.30;;;6.67;;
23099;SDS011;53791;50.696;4.396;2022-08-19T04:49:16;9.28;;;7.20;;
23099;SDS011;53791;50.696;4.396;2022-08-19T04:51:47;8.30;;;6.37;;
23099;SDS011;53791;50.696;4.396;2022-08-19T04:54:16;8.95;;;7.53;;
23099;SDS011;53791;50.696;4.396;2022-08-19T04:56:46;8.03;;;7.22;;
23099;SDS011;53791;50.696;4.396;2022-08-19T04:59:15;10.88;;;6.95;;
23099;SDS011;53791;50.696;4.396;2022-08-19T05:01:45;6.70;;;5.95;;
23099;SDS011;53791;50.696;4.396;2022-08-19T05:07:05;7.28;;;6.40;;
23099;SDS011;53791;50.696;4.396;2022-08-19T05:09:33;6.05;;;4.92;;
23099;SDS011;53791;50.696;4.396;2022-08-19T05:12:01;6.15;;;5.12;;
23099;SDS011;53791;50.696;4.396;2022-08-19T05:14:29;7.70;;;4.95;;
23099;SDS011;53791;50.696;4.396;2022-08-19T05:16:56;4.45;;;4.08;;
23099;SDS011;53791;50.696;4.396;2022-08-19T05:19:24;5.20;;;4.70;;
23099;SDS011;53791;50.696;4.396;2022-08-19T05:22:09;7.17;;;4.80;;
23099;SDS011;53791;50.696;4.396;2022-08-19T05:24:55;5.85;;;4.47;;
23099;SDS011;53791;50.696;4.396;2022-08-19T05:27:22;4.28;;;3.87;;
23099;SDS011;53791;50.696;4.396;2022-08-19T05:29:50;4.72;;;4.20;;
23099;SDS011;53791;50.696;4.396;2022-08-19T05:32:17;4.25;;;3.85;;
23099;SDS011;53791;50.696;4.396;2022-08-19T05:34:45;5.35;;;4.05;;
23099;SDS011;53791;50.696;4.396;2022-08-19T05:37:12;6.40;;;4.35;;
23099;SDS011;53791;50.696;4.396;2022-08-19T05:39:40;5.47;;;4.40;;
23099;SDS011;53791;50.696;4.396;2022-08-19T05:42:08;5.35;;;4.55;;
23099;SDS011;53791;50.696;4.396;2022-08-19T05:44:38;4.80;;;4.33;;
23099;SDS011;53791;50.696;4.396;2022-08-19T05:47:09;10.48;;;4.55;;
23099;SDS011;53791;50.696;4.396;2022-08-19T05:49:38;6.90;;;4.33;;
23099;SDS011;53791;50.696;4.396;2022-08-19T05:52:07;5.20;;;4.45;;
23099;SDS011;53791;50.696;4.396;2022-08-19T05:54:37;3.83;;;3.50;;
23099;SDS011;53791;50.696;4.396;2022-08-19T05:57:07;4.83;;;4.35;;
23099;SDS011;53791;50.696;4.396;2022-08-19T05:59:35;11.25;;;5.08;;
23099;SDS011;53791;50.696;4.396;2022-08-19T06:02:03;5.05;;;4.53;;
23099;SDS011;53791;50.696;4.396;2022-08-19T06:04:32;7.97;;;5.70;;
23099;SDS011;53791;50.696;4.396;2022-08-19T06:07:00;14.20;;;5.80;;
23099;SDS011;53791;50.696;4.396;2022-08-19T06:09:28;5.55;;;3.83;;
23099;SDS011;53791;50.696;4.396;2022-08-19T06:11:56;4.17;;;3.77;;
23099;SDS011;53791;50.696;4.396;2022-08-19T06:14:27;4.75;;;4.33;;
23099;SDS011;53791;50.696;4.396;2022-08-19T06:16:56;10.48;;;4.72;;
23099;SDS011;53791;50.696;4.396;2022-08-19T06:19:26;4.95;;;4.45;;
23099;SDS011;53791;50.696;4.396;2022-08-19T06:21:55;5.08;;;4.58;;
23099;SDS011;53791;50.696;4.396;2022-08-19T06:24:24;4.33;;;3.92;;
23099;SDS011;53791;50.696;4.396;2022-08-19T06:26:53;5.25;;;4.70;;
23099;SDS011;53791;50.696;4.396;2022-08-19T06:29:23;4.37;;;3.98;;
23099;SDS011;53791;50.696;4.396;2022-08-19T06:31:55;4.62;;;4.22;;
23099;SDS011;53791;50.696;4.396;2022-08-19T06:34:22;6.05;;;3.83;;
23099;SDS011;53791;50.696;4.396;2022-08-19T06:36:50;5.62;;;4.60;;
23099;SDS011;53791;50.696;4.396;2022-08-19T06:39:24;3.58;;;3.15;;
23099;SDS011;53791;50.696;4.396;2022-08-19T06:41:52;4.90;;;4.47;;
23099;SDS011;53791;50.696;4.396;2022-08-19T06:44:23;4.80;;;3.87;;
23099;SDS011;53791;50.696;4.396;2022-08-19T06:46:52;5.40;;;4.10;;
23099;SDS011;53791;50.696;4.396;2022-08-19T06:49:22;6.05;;;4.70;;
23099;SDS011;53791;50.696;4.396;2022-08-19T06:51:50;4.75;;;4.03;;
23099;SDS011;53791;50.696;4.396;2022-08-19T06:54:18;3.55;;;3.25;;
23099;SDS011;53791;50.696;4.396;2022-08-19T06:56:46;4.30;;;3.90;;
23099;SDS011;53791;50.696;4.396;2022-08-19T06:59:16;3.92;;;3.15;;
23099;SDS011;53791;50.696;4.396;2022-08-19T07:01:45;3.12;;;2.83;;
23099;SDS011;53791;50.696;4.396;2022-08-19T07:04:18;6.97;;;3.83;;
23099;SDS011;53791;50.696;4.396;2022-08-19T07:06:46;3.60;;;3.15;;
23099;SDS011;53791;50.696;4.396;2022-08-19T07:09:15;4.60;;;3.33;;
23099;SDS011;53791;50.696;4.396;2022-08-19T07:11:45;4.87;;;3.37;;
23099;SDS011;53791;50.696;4.396;2022-08-19T07:14:19;3.90;;;2.85;;
23099;SDS011;53791;50.696;4.396;2022-08-19T07:16:49;3.25;;;2.40;;
23099;SDS011;53791;50.696;4.396;2022-08-19T07:19:20;7.92;;;2.55;;
23099;SDS011;53791;50.696;4.396;2022-08-19T07:21:49;3.08;;;2.75;;
23099;SDS011;53791;50.696;4.396;2022-08-19T07:24:19;2.98;;;2.67;;
23099;SDS011;53791;50.696;4.396;2022-08-19T07:26:49;3.75;;;3.35;;
23099;SDS011;53791;50.696;4.396;2022-08-19T07:29:18;4.17;;;3.10;;
23099;SDS011;53791;50.696;4.396;2022-08-19T07:31:49;4.12;;;3.20;;
23099;SDS011;53791;50.696;4.396;2022-08-19T07:34:17;4.10;;;2.87;;
23099;SDS011;53791;50.696;4.396;2022-08-19T07:36:45;3.87;;;3.20;;
23099;SDS011;53791;50.696;4.396;2022-08-19T07:39:14;3.47;;;2.83;;
23099;SDS011;53791;50.696;4.396;2022-08-19T07:41:44;3.22;;;2.77;;
23099;SDS011;53791;50.696;4.396;2022-08-19T07:44:12;3.60;;;2.85;;
23099;SDS011;53791;50.696;4.396;2022-08-19T07:46:42;3.33;;;3.00;;
23099;SDS011;53791;50.696;4.396;2022-08-19T07:49:12;5.08;;;3.12;;
23099;SDS011;53791;50.696;4.396;2022-08-19T07:51:47;3.22;;;2.92;;
23099;SDS011;53791;50.696;4.396;2022-08-19T07:54:16;2.87;;;2.55;;
23099;SDS011;53791;50.696;4.396;2022-08-19T07:56:45;4.47;;;3.22;;
23099;SDS011;53791;50.696;4.396;2022-08-19T07:59:13;7.67;;;3.33;;
23099;SDS011;53791;50.696;4.396;2022-08-19T08:01:42;7.30;;;3.50;;
23099;SDS011;53791;50.696;4.396;2022-08-19T08:04:10;4.03;;;3.00;;
23099;SDS011;53791;50.696;4.396;2022-08-19T08:06:57;3.87;;;3.47;;
23099;SDS011;53791;50.696;4.396;2022-08-19T08:09:43;3.10;;;2.80;;
23099;SDS011;53791;50.696;4.396;2022-08-19T08:12:12;3.10;;;2.80;;
23099;SDS011;53791;50.696;4.396;2022-08-19T08:14:43;4.03;;;3.22;;
23099;SDS011;53791;50.696;4.396;2022-08-19T08:17:13;2.87;;;2.47;;
23099;SDS011;53791;50.696;4.396;2022-08-19T08:19:44;3.52;;;2.40;;
23099;SDS011;53791;50.696;4.396;2022-08-19T08:22:14;4.25;;;3.12;;
23099;SDS011;53791;50.696;4.396;2022-08-19T08:25:04;3.08;;;2.77;;
23099;SDS011;53791;50.696;4.396;2022-08-19T08:27:37;3.27;;;2.80;;
23099;SDS011;53791;50.696;4.396;2022-08-19T08:30:07;2.80;;;2.50;;
23099;SDS011;53791;50.696;4.396;2022-08-19T08:32:36;2.52;;;2.33;;
23099;SDS011;53791;50.696;4.396;2022-08-19T08:35:05;2.45;;;2.25;;
23099;SDS011;53791;50.696;4.396;2022-08-19T08:37:34;2.80;;;2.52;;
23099;SDS011;53791;50.696;4.396;2022-08-19T08:40:03;3.85;;;3.08;;
23099;SDS011;53791;50.696;4.396;2022-08-19T08:42:36;3.50;;;2.70;;
23099;SDS011;53791;50.696;4.396;2022-08-19T08:45:08;2.92;;;2.62;;
23099;SDS011;53791;50.696;4.396;2022-08-19T08:47:42;3.00;;;2.70;;
23099;SDS011;53791;50.696;4.396;2022-08-19T08:50:18;3.83;;;3.05;;
23099;SDS011;53791;50.696;4.396;2022-08-19T08:52:44;5.10;;;3.95;;
23099;SDS011;53791;50.696;4.396;2022-08-19T08:55:14;3.30;;;2.92;;
23099;SDS011;53791;50.696;4.396;2022-08-19T08:57:52;3.47;;;2.55;;
23099;SDS011;53791;50.696;4.396;2022-08-19T09:00:23;2.58;;;2.37;;
23099;SDS011;53791;50.696;4.396;2022-08-19T09:02:52;2.90;;;2.60;;
23099;SDS011;53791;50.696;4.396;2022-08-19T09:05:21;2.62;;;2.40;;
23099;SDS011;53791;50.696;4.396;2022-08-19T09:08:02;3.25;;;2.92;;
23099;SDS011;53791;50.696;4.396;2022-08-19T09:10:38;2.92;;;2.62;;
23099;SDS011;53791;50.696;4.396;2022-08-19T09:16:16;3.70;;;3.40;;
23099;SDS011;53791;50.696;4.396;2022-08-19T09:18:47;3.05;;;2.75;;
23099;SDS011;53791;50.696;4.396;2022-08-19T09:21:20;3.30;;;3.00;;
23099;SDS011;53791;50.696;4.396;2022-08-19T09:23:48;3.12;;;2.83;;
23099;SDS011;53791;50.696;4.396;2022-08-19T09:26:17;4.17;;;3.77;;
23099;SDS011;53791;50.696;4.396;2022-08-19T09:28:47;5.95;;;3.67;;
23099;SDS011;53791;50.696;4.396;2022-08-19T09:31:17;3.50;;;3.05;;
23099;SDS011;53791;50.696;4.396;2022-08-19T09:33:47;3.33;;;3.02;;
23099;SDS011;53791;50.696;4.396;2022-08-19T09:36:15;2.80;;;2.60;;
23099;SDS011;53791;50.696;4.396;2022-08-19T09:38:44;3.12;;;2.83;;
23099;SDS011;53791;50.696;4.396;2022-08-19T09:41:13;3.22;;;2.87;;
23099;SDS011;53791;50.696;4.396;2022-08-19T09:43:44;2.90;;;2.60;;
23099;SDS011;53791;50.696;4.396;2022-08-19T09:46:13;3.77;;;3.40;;
23099;SDS011;53791;50.696;4.396;2022-08-19T09:48:42;3.40;;;3.10;;
23099;SDS011;53791;50.696;4.396;2022-08-19T09:51:12;3.08;;;2.77;;
23099;SDS011;53791;50.696;4.396;2022-08-19T09:53:47;3.37;;;3.08;;
23099;SDS011;53791;50.696;4.396;2022-08-19T09:56:11;3.90;;;3.50;;
23099;SDS011;53791;50.696;4.396;2022-08-19T09:58:39;4.70;;;3.15;;
23099;SDS011;53791;50.696;4.396;2022-08-19T10:01:08;3.15;;;2.85;;
23099;SDS011;53791;50.696;4.396;2022-08-19T10:03:36;4.10;;;3.70;;
23099;SDS011;53791;50.696;4.396;2022-08-19T10:06:04;3.75;;;3.45;;
23099;SDS011;53791;50.696;4.396;2022-08-19T10:08:33;3.42;;;3.12;;
23099;SDS011;53791;50.696;4.396;2022-08-19T10:11:03;6.60;;;3.58;;
23099;SDS011;53791;50.696;4.396;2022-08-19T10:13:31;3.65;;;3.08;;
23099;SDS011;53791;50.696;4.396;2022-08-19T10:16:08;3.33;;;3.02;;
23099;SDS011;53791;50.696;4.396;2022-08-19T10:18:37;3.40;;;3.10;;
23099;SDS011;53791;50.696;4.396;2022-08-19T10:21:08;3.35;;;3.05;;
23099;SDS011;53791;50.696;4.396;2022-08-19T10:23:44;3.60;;;3.30;;
23099;SDS011;53791;50.696;4.396;2022-08-19T10:26:15;3.33;;;3.02;;
23099;SDS011;53791;50.696;4.396;2022-08-19T10:28:44;3.50;;;3.00;;
23099;SDS011;53791;50.696;4.396;2022-08-19T10:31:13;4.78;;;3.37;;
23099;SDS011;53791;50.696;4.396;2022-08-19T10:33:43;3.80;;;3.50;;
23099;SDS011;53791;50.696;4.396;2022-08-19T10:36:12;3.40;;;3.10;;
23099;SDS011;53791;50.696;4.396;2022-08-19T10:38:43;3.67;;;3.37;;
23099;SDS011;53791;50.696;4.396;2022-08-19T10:41:27;4.12;;;3.72;;
23099;SDS011;53791;50.696;4.396;2022-08-19T10:43:56;3.98;;;3.65;;
23099;SDS011;53791;50.696;4.396;2022-08-19T10:46:26;4.03;;;3.65;;
23099;SDS011;53791;50.696;4.396;2022-08-19T10:48:56;3.75;;;3.45;;
23099;SDS011;53791;50.696;4.396;2022-08-19T10:51:24;3.83;;;3.40;;
23099;SDS011;53791;50.696;4.396;2022-08-19T10:54:09;3.22;;;2.92;;
23099;SDS011;53791;50.696;4.396;2022-08-19T10:56:37;6.62;;;4.05;;
23099;SDS011;53791;50.696;4.396;2022-08-19T10:59:23;4.12;;;3.72;;
23099;SDS011;53791;50.696;4.396;2022-08-19T11:01:53;3.67;;;3.37;;
23099;SDS011;53791;50.696;4.396;2022-08-19T11:04:22;4.22;;;3.83;;
23099;SDS011;53791;50.696;4.396;2022-08-19T11:06:50;3.95;;;3.60;;
23099;SDS011;53791;50.696;4.396;2022-08-19T11:09:19;4.28;;;3.87;;
23099;SDS011;53791;50.696;4.396;2022-08-19T11:11:49;4.70;;;4.20;;
23099;SDS011;53791;50.696;4.396;2022-08-19T11:14:19;5.00;;;3.65;;
23099;SDS011;53791;50.696;4.396;2022-08-19T11:16:48;4.00;;;3.70;;
23099;SDS011;53791;50.696;4.396;2022-08-19T11:19:17;3.60;;;3.30;;
23099;SDS011;53791;50.696;4.396;2022-08-19T11:21:46;3.40;;;3.10;;
23099;SDS011;53791;50.696;4.396;2022-08-19T11:24:16;3.20;;;2.95;;
23099;SDS011;53791;50.696;4.396;2022-08-19T11:26:49;3.83;;;3.50;;
23099;SDS011;53791;50.696;4.396;2022-08-19T11:29:19;3.65;;;3.35;;
23099;SDS011;53791;50.696;4.396;2022-08-19T11:31:49;3.85;;;3.52;;
23099;SDS011;53791;50.696;4.396;2022-08-19T11:34:20;3.90;;;3.58;;
23099;SDS011;53791;50.696;4.396;2022-08-19T11:36:51;3.92;;;3.52;;
23099;SDS011;53791;50.696;4.396;2022-08-19T11:39:19;3.33;;;3.02;;
23099;SDS011;53791;50.696;4.396;2022-08-19T11:41:48;3.20;;;2.90;;
23099;SDS011;53791;50.696;4.396;2022-08-19T11:44:15;4.45;;;3.33;;
23099;SDS011;53791;50.696;4.396;2022-08-19T11:46:44;4.05;;;3.65;;
23099;SDS011;53791;50.696;4.396;2022-08-19T11:49:13;3.47;;;3.17;;
23099;SDS011;53791;50.696;4.396;2022-08-19T11:51:42;3.77;;;3.30;;
23099;SDS011;53791;50.696;4.396;2022-08-19T11:54:10;3.42;;;3.12;;
23099;SDS011;53791;50.696;4.396;2022-08-19T11:56:39;2.83;;;2.62;;
23099;SDS011;53791;50.696;4.396;2022-08-19T11:59:07;3.42;;;3.12;;
23099;SDS011;53791;50.696;4.396;2022-08-19T12:01:35;3.33;;;3.02;;
23099;SDS011;53791;50.696;4.396;2022-08-19T12:04:03;3.60;;;3.30;;
23099;SDS011;53791;50.696;4.396;2022-08-19T12:06:31;4.00;;;3.50;;
23099;SDS011;53791;50.696;4.396;2022-08-19T12:09:01;3.12;;;2.83;;
23099;SDS011;53791;50.696;4.396;2022-08-19T12:11:31;3.33;;;3.02;;
23099;SDS011;53791;50.696;4.396;2022-08-19T12:13:59;2.80;;;2.60;;
23099;SDS011;53791;50.696;4.396;2022-08-19T12:16:27;3.55;;;3.10;;
23099;SDS011;53791;50.696;4.396;2022-08-19T12:18:57;3.30;;;3.00;;
23099;SDS011;53791;50.696;4.396;2022-08-19T12:21:27;4.33;;;3.33;;
23099;SDS011;53791;50.696;4.396;2022-08-19T12:23:55;2.90;;;2.70;;
23099;SDS011;53791;50.696;4.396;2022-08-19T12:26:25;3.50;;;3.20;;
23099;SDS011;53791;50.696;4.396;2022-08-19T12:28:54;3.77;;;3.20;;
23099;SDS011;53791;50.696;4.396;2022-08-19T12:31:22;3.72;;;3.42;;
23099;SDS011;53791;50.696;4.396;2022-08-19T12:33:49;3.37;;;3.08;;
23099;SDS011;53791;50.696;4.396;2022-08-19T12:36:18;4.25;;;3.80;;
23099;SDS011;53791;50.696;4.396;2022-08-19T12:38:45;4.30;;;3.90;;
23099;SDS011;53791;50.696;4.396;2022-08-19T12:41:14;3.85;;;3.45;;
23099;SDS011;53791;50.696;4.396;2022-08-19T12:43:44;6.17;;;3.83;;
23099;SDS011;53791;50.696;4.396;2022-08-19T12:46:13;3.42;;;3.12;;
23099;SDS011;53791;50.696;4.396;2022-08-19T12:48:41;4.53;;;3.65;;
23099;SDS011;53791;50.696;4.396;2022-08-19T12:53:41;3.65;;;3.35;;
23099;SDS011;53791;50.696;4.396;2022-08-19T12:56:09;3.25;;;2.95;;
23099;SDS011;53791;50.696;4.396;2022-08-19T12:58:39;3.15;;;2.85;;
23099;SDS011;53791;50.696;4.396;2022-08-19T13:03:44;3.42;;;3.12;;
23099;SDS011;53791;50.696;4.396;2022-08-19T13:06:11;3.15;;;2.85;;
23099;SDS011;53791;50.696;4.396;2022-08-19T13:08:39;3.17;;;2.85;;
23099;SDS011;53791;50.696;4.396;2022-08-19T13:13:41;4.75;;;3.22;;
23099;SDS011;53791;50.696;4.396;2022-08-19T13:16:10;3.58;;;3.00;;
23099;SDS011;53791;50.696;4.396;2022-08-19T13:18:39;2.80;;;2.60;;
23099;SDS011;53791;50.696;4.396;2022-08-19T13:21:09;3.05;;;2.75;;
23099;SDS011;53791;50.696;4.396;2022-08-19T13:23:39;4.17;;;3.40;;
23099;SDS011;53791;50.696;4.396;2022-08-19T13:26:07;3.10;;;2.80;;
23099;SDS011;53791;50.696;4.396;2022-08-19T13:28:35;3.70;;;3.05;;
23099;SDS011;53791;50.696;4.396;2022-08-19T13:31:22;2.70;;;2.50;;
23099;SDS011;53791;50.696;4.396;2022-08-19T13:34:16;2.83;;;2.55;;
23099;SDS011;53791;50.696;4.396;2022-08-19T13:36:44;2.62;;;2.20;;
23099;SDS011;53791;50.696;4.396;2022-08-19T13:39:11;2.50;;;2.30;;
23099;SDS011;53791;50.696;4.396;2022-08-19T13:41:43;2.70;;;2.45;;
23099;SDS011;53791;50.696;4.396;2022-08-19T13:44:17;2.60;;;2.40;;
23099;SDS011;53791;50.696;4.396;2022-08-19T13:46:45;4.28;;;2.85;;
23099;SDS011;53791;50.696;4.396;2022-08-19T13:49:15;2.42;;;2.22;;
23099;SDS011;53791;50.696;4.396;2022-08-19T13:51:43;3.87;;;2.40;;
23099;SDS011;53791;50.696;4.396;2022-08-19T13:54:11;3.22;;;2.65;;
23099;SDS011;53791;50.696;4.396;2022-08-19T13:56:40;2.70;;;2.20;;
23099;SDS011;53791;50.696;4.396;2022-08-19T13:59:09;2.30;;;2.10;;
23099;SDS011;53791;50.696;4.396;2022-08-19T14:01:37;2.50;;;2.20;;
23099;SDS011;53791;50.696;4.396;2022-08-19T14:04:06;8.05;;;2.95;;
23099;SDS011;53791;50.696;4.396;2022-08-19T14:06:34;3.35;;;2.55;;
23099;SDS011;53791;50.696;4.396;2022-08-19T14:09:02;2.27;;;2.08;;
23099;SDS011;53791;50.696;4.396;2022-08-19T14:11:30;2.40;;;2.20;;
23099;SDS011;53791;50.696;4.396;2022-08-19T14:13:57;2.52;;;2.33;;
23099;SDS011;53791;50.696;4.396;2022-08-19T14:16:25;2.30;;;2.00;;
23099;SDS011;53791;50.696;4.396;2022-08-19T14:18:53;1.90;;;1.60;;
23099;SDS011;53791;50.696;4.396;2022-08-19T14:21:21;3.10;;;2.00;;
23099;SDS011;53791;50.696;4.396;2022-08-19T14:23:50;3.33;;;2.33;;
23099;SDS011;53791;50.696;4.396;2022-08-19T14:26:19;2.80;;;2.12;;
23099;SDS011;53791;50.696;4.396;2022-08-19T14:28:48;2.00;;;1.70;;
23099;SDS011;53791;50.696;4.396;2022-08-19T14:31:17;2.30;;;2.05;;
23099;SDS011;53791;50.696;4.396;2022-08-19T14:33:46;2.47;;;2.10;;
23099;SDS011;53791;50.696;4.396;2022-08-19T14:36:14;2.42;;;2.22;;
23099;SDS011;53791;50.696;4.396;2022-08-19T14:38:42;2.27;;;2.08;;
23099;SDS011;53791;50.696;4.396;2022-08-19T14:41:12;2.20;;;2.00;;
23099;SDS011;53791;50.696;4.396;2022-08-19T14:43:43;3.12;;;2.50;;
23099;SDS011;53791;50.696;4.396;2022-08-19T14:46:16;4.45;;;2.77;;
23099;SDS011;53791;50.696;4.396;2022-08-19T14:48:49;2.70;;;2.50;;
23099;SDS011;53791;50.696;4.396;2022-08-19T14:51:22;2.70;;;2.50;;
23099;SDS011;53791;50.696;4.396;2022-08-19T14:53:52;3.33;;;3.00;;
23099;SDS011;53791;50.696;4.396;2022-08-19T14:56:23;2.52;;;2.30;;
23099;SDS011;53791;50.696;4.396;2022-08-19T14:58:51;3.02;;;2.72;;
23099;SDS011;53791;50.696;4.396;2022-08-19T15:01:19;2.60;;;2.40;;
23099;SDS011;53791;50.696;4.396;2022-08-19T15:03:49;2.60;;;2.40;;
23099;SDS011;53791;50.696;4.396;2022-08-19T15:06:21;3.02;;;2.80;;
23099;SDS011;53791;50.696;4.396;2022-08-19T15:08:49;3.27;;;2.98;;
23099;SDS011;53791;50.696;4.396;2022-08-19T15:11:19;2.90;;;2.70;;
23099;SDS011;53791;50.696;4.396;2022-08-19T15:13:49;2.92;;;2.72;;
23099;SDS011;53791;50.696;4.396;2022-08-19T15:16:17;2.80;;;2.60;;
23099;SDS011;53791;50.696;4.396;2022-08-19T15:18:46;3.83;;;3.37;;